sensor_id;sensor_type;location;lat;lon;timestamp;P1;durP1;ratioP1;P2;durP2;ratioP2
16352;SDS011;8286;51.274;9.542;2022-12-01T00:01:11;36.13;;;16.67;;
16352;SDS011;8286;51.274;9.542;2022-12-01T00:03:39;37.83;;;17.17;;
16352;SDS011;8286;51.274;9.542;2022-12-01T00:06:08;38.27;;;16.00;;
16352;SDS011;8286;51.274;9.542;2022-12-01T00:08:38;33.57;;;16.53;;
16352;SDS011;8286;51.274;9.542;2022-12-01T00:11:04;37.77;;;15.97;;
16352;SDS011;8286;51.274;9.542;2022-12-01T00:13:31;39.63;;;16.10;;
16352;SDS011;8286;51.274;9.542;2022-12-01T00:16:07;33.37;;;16.53;;
16352;SDS011;8286;51.274;9.542;2022-12-01T00:18:35;34.97;;;16.27;;
16352;SDS011;8286;51.274;9.542;2022-12-01T00:21:01;43.27;;;17.20;;
16352;SDS011;8286;51.274;9.542;2022-12-01T00:23:28;36.83;;;17.00;;
16352;SDS011;8286;51.274;9.542;2022-12-01T00:26:01;40.33;;;17.67;;
16352;SDS011;8286;51.274;9.542;2022-12-01T00:28:29;39.90;;;17.40;;
16352;SDS011;8286;51.274;9.542;2022-12-01T00:30:55;39.00;;;17.57;;
16352;SDS011;8286;51.274;9.542;2022-12-01T00:33:22;38.63;;;17.17;;
16352;SDS011;8286;51.274;9.542;2022-12-01T00:35:49;38.47;;;16.83;;
16352;SDS011;8286;51.274;9.542;2022-12-01T00:38:15;38.67;;;18.10;;
16352;SDS011;8286;51.274;9.542;2022-12-01T00:40:42;40.13;;;17.50;;
16352;SDS011;8286;51.274;9.542;2022-12-01T00:43:10;41.60;;;17.07;;
16352;SDS011;8286;51.274;9.542;2022-12-01T00:45:36;39.13;;;17.67;;
16352;SDS011;8286;51.274;9.542;2022-12-01T00:48:03;42.73;;;18.53;;
16352;SDS011;8286;51.274;9.542;2022-12-01T00:50:30;40.63;;;17.53;;
16352;SDS011;8286;51.274;9.542;2022-12-01T00:52:56;37.17;;;17.57;;
16352;SDS011;8286;51.274;9.542;2022-12-01T00:55:23;41.23;;;17.13;;
16352;SDS011;8286;51.274;9.542;2022-12-01T00:57:50;41.67;;;19.40;;
16352;SDS011;8286;51.274;9.542;2022-12-01T01:00:18;47.67;;;18.67;;
16352;SDS011;8286;51.274;9.542;2022-12-01T01:02:45;41.13;;;18.30;;
16352;SDS011;8286;51.274;9.542;2022-12-01T01:05:12;42.67;;;18.13;;
16352;SDS011;8286;51.274;9.542;2022-12-01T01:07:38;38.27;;;17.87;;
16352;SDS011;8286;51.274;9.542;2022-12-01T01:10:06;43.40;;;18.47;;
16352;SDS011;8286;51.274;9.542;2022-12-01T01:12:32;48.40;;;20.20;;
16352;SDS011;8286;51.274;9.542;2022-12-01T01:14:59;39.13;;;17.10;;
16352;SDS011;8286;51.274;9.542;2022-12-01T01:17:27;47.97;;;18.87;;
16352;SDS011;8286;51.274;9.542;2022-12-01T01:19:54;49.80;;;19.23;;
16352;SDS011;8286;51.274;9.542;2022-12-01T01:22:20;43.43;;;19.17;;
16352;SDS011;8286;51.274;9.542;2022-12-01T01:24:47;46.37;;;17.83;;
16352;SDS011;8286;51.274;9.542;2022-12-01T01:27:13;37.90;;;16.23;;
16352;SDS011;8286;51.274;9.542;2022-12-01T01:29:40;46.03;;;19.10;;
16352;SDS011;8286;51.274;9.542;2022-12-01T01:32:07;42.47;;;19.17;;
16352;SDS011;8286;51.274;9.542;2022-12-01T01:34:35;46.90;;;19.30;;
16352;SDS011;8286;51.274;9.542;2022-12-01T01:37:01;46.00;;;17.73;;
16352;SDS011;8286;51.274;9.542;2022-12-01T01:39:28;45.60;;;18.33;;
16352;SDS011;8286;51.274;9.542;2022-12-01T01:41:55;41.70;;;16.97;;
16352;SDS011;8286;51.274;9.542;2022-12-01T01:47:14;40.63;;;17.57;;
16352;SDS011;8286;51.274;9.542;2022-12-01T01:49:43;42.90;;;16.97;;
16352;SDS011;8286;51.274;9.542;2022-12-01T01:52:10;46.57;;;18.50;;
16352;SDS011;8286;51.274;9.542;2022-12-01T01:54:38;43.40;;;18.47;;
16352;SDS011;8286;51.274;9.542;2022-12-01T01:57:06;48.93;;;19.63;;
16352;SDS011;8286;51.274;9.542;2022-12-01T01:59:34;50.47;;;19.93;;
16352;SDS011;8286;51.274;9.542;2022-12-01T02:02:03;48.07;;;19.63;;
16352;SDS011;8286;51.274;9.542;2022-12-01T02:04:32;46.67;;;18.67;;
16352;SDS011;8286;51.274;9.542;2022-12-01T02:07:02;45.50;;;19.60;;
16352;SDS011;8286;51.274;9.542;2022-12-01T02:09:29;56.67;;;19.97;;
16352;SDS011;8286;51.274;9.542;2022-12-01T02:11:59;54.17;;;20.80;;
16352;SDS011;8286;51.274;9.542;2022-12-01T02:14:40;51.80;;;20.23;;
16352;SDS011;8286;51.274;9.542;2022-12-01T02:17:18;58.20;;;22.37;;
16352;SDS011;8286;51.274;9.542;2022-12-01T02:19:54;58.20;;;22.53;;
16352;SDS011;8286;51.274;9.542;2022-12-01T02:22:39;56.37;;;20.97;;
16352;SDS011;8286;51.274;9.542;2022-12-01T02:25:21;59.70;;;20.90;;
16352;SDS011;8286;51.274;9.542;2022-12-01T02:27:58;66.23;;;24.13;;
16352;SDS011;8286;51.274;9.542;2022-12-01T02:30:40;62.77;;;23.70;;
16352;SDS011;8286;51.274;9.542;2022-12-01T02:33:10;64.73;;;24.20;;
16352;SDS011;8286;51.274;9.542;2022-12-01T02:35:42;60.77;;;22.50;;
16352;SDS011;8286;51.274;9.542;2022-12-01T02:38:13;59.53;;;22.73;;
16352;SDS011;8286;51.274;9.542;2022-12-01T02:40:44;59.27;;;23.03;;
16352;SDS011;8286;51.274;9.542;2022-12-01T02:43:14;54.77;;;22.80;;
16352;SDS011;8286;51.274;9.542;2022-12-01T02:45:46;58.80;;;21.67;;
16352;SDS011;8286;51.274;9.542;2022-12-01T02:48:16;56.73;;;22.93;;
16352;SDS011;8286;51.274;9.542;2022-12-01T02:50:44;59.03;;;22.23;;
16352;SDS011;8286;51.274;9.542;2022-12-01T02:53:12;63.80;;;23.67;;
16352;SDS011;8286;51.274;9.542;2022-12-01T02:55:47;56.03;;;23.33;;
16352;SDS011;8286;51.274;9.542;2022-12-01T02:58:15;58.07;;;22.10;;
16352;SDS011;8286;51.274;9.542;2022-12-01T03:00:44;59.40;;;21.93;;
16352;SDS011;8286;51.274;9.542;2022-12-01T03:03:31;57.43;;;23.20;;
16352;SDS011;8286;51.274;9.542;2022-12-01T03:06:07;57.07;;;21.67;;
16352;SDS011;8286;51.274;9.542;2022-12-01T03:08:39;56.93;;;21.23;;
16352;SDS011;8286;51.274;9.542;2022-12-01T03:11:10;53.37;;;21.57;;
16352;SDS011;8286;51.274;9.542;2022-12-01T03:13:53;54.77;;;21.73;;
16352;SDS011;8286;51.274;9.542;2022-12-01T03:16:25;48.00;;;19.33;;
16352;SDS011;8286;51.274;9.542;2022-12-01T03:18:53;40.07;;;19.50;;
16352;SDS011;8286;51.274;9.542;2022-12-01T03:21:23;55.97;;;20.70;;
16352;SDS011;8286;51.274;9.542;2022-12-01T03:23:53;46.57;;;18.97;;
16352;SDS011;8286;51.274;9.542;2022-12-01T03:26:21;40.17;;;17.90;;
16352;SDS011;8286;51.274;9.542;2022-12-01T03:28:50;45.83;;;19.73;;
16352;SDS011;8286;51.274;9.542;2022-12-01T03:31:19;38.70;;;18.30;;
16352;SDS011;8286;51.274;9.542;2022-12-01T03:33:50;41.97;;;18.50;;
16352;SDS011;8286;51.274;9.542;2022-12-01T03:36:23;47.00;;;18.47;;
16352;SDS011;8286;51.274;9.542;2022-12-01T03:38:51;41.10;;;17.20;;
16352;SDS011;8286;51.274;9.542;2022-12-01T03:41:21;40.93;;;17.93;;
16352;SDS011;8286;51.274;9.542;2022-12-01T03:43:52;50.83;;;20.10;;
16352;SDS011;8286;51.274;9.542;2022-12-01T03:46:21;48.43;;;19.77;;
16352;SDS011;8286;51.274;9.542;2022-12-01T03:48:52;40.50;;;19.07;;
16352;SDS011;8286;51.274;9.542;2022-12-01T03:51:20;46.63;;;18.63;;
16352;SDS011;8286;51.274;9.542;2022-12-01T03:53:51;43.17;;;19.17;;
16352;SDS011;8286;51.274;9.542;2022-12-01T03:56:23;43.10;;;17.90;;
16352;SDS011;8286;51.274;9.542;2022-12-01T03:58:51;48.27;;;20.77;;
16352;SDS011;8286;51.274;9.542;2022-12-01T04:01:21;40.57;;;19.27;;
16352;SDS011;8286;51.274;9.542;2022-12-01T04:03:48;46.73;;;19.57;;
16352;SDS011;8286;51.274;9.542;2022-12-01T04:06:16;45.87;;;19.63;;
16352;SDS011;8286;51.274;9.542;2022-12-01T04:08:43;48.23;;;19.83;;
16352;SDS011;8286;51.274;9.542;2022-12-01T04:11:09;49.57;;;19.17;;
16352;SDS011;8286;51.274;9.542;2022-12-01T04:13:53;53.47;;;20.27;;
16352;SDS011;8286;51.274;9.542;2022-12-01T04:16:20;49.67;;;20.33;;
16352;SDS011;8286;51.274;9.542;2022-12-01T04:18:46;46.00;;;19.53;;
16352;SDS011;8286;51.274;9.542;2022-12-01T04:21:13;45.60;;;19.57;;
16352;SDS011;8286;51.274;9.542;2022-12-01T04:23:41;47.43;;;18.80;;
16352;SDS011;8286;51.274;9.542;2022-12-01T04:26:26;44.53;;;19.93;;
16352;SDS011;8286;51.274;9.542;2022-12-01T04:28:52;48.70;;;19.70;;
16352;SDS011;8286;51.274;9.542;2022-12-01T04:31:19;47.23;;;18.80;;
16352;SDS011;8286;51.274;9.542;2022-12-01T04:33:46;40.57;;;18.70;;
16352;SDS011;8286;51.274;9.542;2022-12-01T04:36:12;46.83;;;19.83;;
16352;SDS011;8286;51.274;9.542;2022-12-01T04:38:40;42.03;;;18.40;;
16352;SDS011;8286;51.274;9.542;2022-12-01T04:41:07;41.23;;;18.83;;
16352;SDS011;8286;51.274;9.542;2022-12-01T04:43:34;49.67;;;19.43;;
16352;SDS011;8286;51.274;9.542;2022-12-01T04:46:01;45.23;;;20.00;;
16352;SDS011;8286;51.274;9.542;2022-12-01T04:48:28;41.47;;;19.37;;
16352;SDS011;8286;51.274;9.542;2022-12-01T04:50:55;40.77;;;17.53;;
16352;SDS011;8286;51.274;9.542;2022-12-01T04:53:21;41.10;;;18.60;;
16352;SDS011;8286;51.274;9.542;2022-12-01T04:55:49;39.57;;;18.10;;
16352;SDS011;8286;51.274;9.542;2022-12-01T04:58:16;46.67;;;19.10;;
16352;SDS011;8286;51.274;9.542;2022-12-01T05:00:43;42.27;;;17.93;;
16352;SDS011;8286;51.274;9.542;2022-12-01T05:03:09;49.73;;;20.50;;
16352;SDS011;8286;51.274;9.542;2022-12-01T05:05:36;50.00;;;19.50;;
16352;SDS011;8286;51.274;9.542;2022-12-01T05:08:03;51.47;;;20.77;;
16352;SDS011;8286;51.274;9.542;2022-12-01T05:10:29;46.17;;;20.63;;
16352;SDS011;8286;51.274;9.542;2022-12-01T05:12:57;50.10;;;19.53;;
16352;SDS011;8286;51.274;9.542;2022-12-01T05:15:24;52.37;;;20.63;;
16352;SDS011;8286;51.274;9.542;2022-12-01T05:17:51;45.40;;;19.73;;
16352;SDS011;8286;51.274;9.542;2022-12-01T05:20:18;51.27;;;21.63;;
16352;SDS011;8286;51.274;9.542;2022-12-01T05:23:04;47.87;;;19.27;;
16352;SDS011;8286;51.274;9.542;2022-12-01T05:25:31;47.57;;;20.00;;
16352;SDS011;8286;51.274;9.542;2022-12-01T05:28:00;50.77;;;20.47;;
16352;SDS011;8286;51.274;9.542;2022-12-01T05:30:27;50.83;;;19.83;;
16352;SDS011;8286;51.274;9.542;2022-12-01T05:32:54;51.43;;;19.93;;
16352;SDS011;8286;51.274;9.542;2022-12-01T05:35:20;51.13;;;19.17;;
16352;SDS011;8286;51.274;9.542;2022-12-01T05:37:47;46.07;;;20.27;;
16352;SDS011;8286;51.274;9.542;2022-12-01T05:40:14;44.37;;;18.70;;
16352;SDS011;8286;51.274;9.542;2022-12-01T05:42:41;42.53;;;16.77;;
16352;SDS011;8286;51.274;9.542;2022-12-01T05:45:09;43.60;;;19.33;;
16352;SDS011;8286;51.274;9.542;2022-12-01T05:47:36;37.77;;;17.47;;
16352;SDS011;8286;51.274;9.542;2022-12-01T05:50:03;30.13;;;14.43;;
16352;SDS011;8286;51.274;9.542;2022-12-01T05:52:32;32.40;;;15.20;;
16352;SDS011;8286;51.274;9.542;2022-12-01T05:54:59;35.33;;;16.17;;
16352;SDS011;8286;51.274;9.542;2022-12-01T05:57:26;33.80;;;15.43;;
16352;SDS011;8286;51.274;9.542;2022-12-01T05:59:52;30.53;;;14.50;;
16352;SDS011;8286;51.274;9.542;2022-12-01T06:02:20;30.97;;;14.87;;
16352;SDS011;8286;51.274;9.542;2022-12-01T06:04:47;37.27;;;16.23;;
16352;SDS011;8286;51.274;9.542;2022-12-01T06:07:14;32.17;;;14.53;;
16352;SDS011;8286;51.274;9.542;2022-12-01T06:09:40;28.73;;;13.97;;
16352;SDS011;8286;51.274;9.542;2022-12-01T06:12:09;33.90;;;15.67;;
16352;SDS011;8286;51.274;9.542;2022-12-01T06:14:35;36.30;;;15.80;;
16352;SDS011;8286;51.274;9.542;2022-12-01T06:17:02;32.67;;;14.63;;
16352;SDS011;8286;51.274;9.542;2022-12-01T06:19:30;35.87;;;16.90;;
16352;SDS011;8286;51.274;9.542;2022-12-01T06:21:57;31.87;;;15.70;;
16352;SDS011;8286;51.274;9.542;2022-12-01T06:24:24;35.23;;;15.97;;
16352;SDS011;8286;51.274;9.542;2022-12-01T06:26:50;33.70;;;15.30;;
16352;SDS011;8286;51.274;9.542;2022-12-01T06:29:17;35.30;;;16.07;;
16352;SDS011;8286;51.274;9.542;2022-12-01T06:31:44;31.80;;;15.87;;
16352;SDS011;8286;51.274;9.542;2022-12-01T06:34:11;33.43;;;15.67;;
16352;SDS011;8286;51.274;9.542;2022-12-01T06:36:39;39.40;;;16.27;;
16352;SDS011;8286;51.274;9.542;2022-12-01T06:39:05;30.47;;;14.13;;
16352;SDS011;8286;51.274;9.542;2022-12-01T06:41:34;33.60;;;15.80;;
16352;SDS011;8286;51.274;9.542;2022-12-01T06:44:00;34.80;;;15.27;;
16352;SDS011;8286;51.274;9.542;2022-12-01T06:46:27;30.80;;;15.07;;
16352;SDS011;8286;51.274;9.542;2022-12-01T06:48:54;30.17;;;14.70;;
16352;SDS011;8286;51.274;9.542;2022-12-01T06:51:21;33.20;;;14.53;;
16352;SDS011;8286;51.274;9.542;2022-12-01T06:53:52;34.73;;;15.97;;
16352;SDS011;8286;51.274;9.542;2022-12-01T06:56:20;30.17;;;15.00;;
16352;SDS011;8286;51.274;9.542;2022-12-01T06:58:47;31.13;;;14.63;;
16352;SDS011;8286;51.274;9.542;2022-12-01T07:01:14;28.27;;;14.30;;
16352;SDS011;8286;51.274;9.542;2022-12-01T07:03:41;31.03;;;15.53;;
16352;SDS011;8286;51.274;9.542;2022-12-01T07:06:08;33.50;;;15.83;;
16352;SDS011;8286;51.274;9.542;2022-12-01T07:08:35;36.83;;;17.00;;
16352;SDS011;8286;51.274;9.542;2022-12-01T07:11:03;36.80;;;16.57;;
16352;SDS011;8286;51.274;9.542;2022-12-01T07:13:31;34.20;;;15.53;;
16352;SDS011;8286;51.274;9.542;2022-12-01T07:15:58;31.67;;;16.50;;
16352;SDS011;8286;51.274;9.542;2022-12-01T07:18:25;37.20;;;17.27;;
16352;SDS011;8286;51.274;9.542;2022-12-01T07:20:51;34.13;;;16.67;;
16352;SDS011;8286;51.274;9.542;2022-12-01T07:23:18;41.57;;;17.50;;
16352;SDS011;8286;51.274;9.542;2022-12-01T07:25:45;38.67;;;17.30;;
16352;SDS011;8286;51.274;9.542;2022-12-01T07:28:13;36.43;;;15.97;;
16352;SDS011;8286;51.274;9.542;2022-12-01T07:30:40;38.87;;;17.90;;
16352;SDS011;8286;51.274;9.542;2022-12-01T07:33:07;40.60;;;18.13;;
16352;SDS011;8286;51.274;9.542;2022-12-01T07:35:33;43.53;;;18.50;;
16352;SDS011;8286;51.274;9.542;2022-12-01T07:38:00;52.97;;;18.70;;
16352;SDS011;8286;51.274;9.542;2022-12-01T07:40:27;33.10;;;16.20;;
16352;SDS011;8286;51.274;9.542;2022-12-01T07:42:53;36.37;;;15.67;;
16352;SDS011;8286;51.274;9.542;2022-12-01T07:45:21;32.83;;;15.20;;
16352;SDS011;8286;51.274;9.542;2022-12-01T07:47:51;36.87;;;15.93;;
16352;SDS011;8286;51.274;9.542;2022-12-01T07:50:17;37.93;;;16.73;;
16352;SDS011;8286;51.274;9.542;2022-12-01T07:52:47;34.60;;;16.10;;
16352;SDS011;8286;51.274;9.542;2022-12-01T07:55:14;38.07;;;16.60;;
16352;SDS011;8286;51.274;9.542;2022-12-01T07:57:41;35.47;;;15.30;;
16352;SDS011;8286;51.274;9.542;2022-12-01T08:00:08;36.37;;;15.33;;
16352;SDS011;8286;51.274;9.542;2022-12-01T08:02:37;39.50;;;16.03;;
16352;SDS011;8286;51.274;9.542;2022-12-01T08:05:04;40.50;;;16.17;;
16352;SDS011;8286;51.274;9.542;2022-12-01T08:07:31;39.63;;;16.90;;
16352;SDS011;8286;51.274;9.542;2022-12-01T08:09:57;36.27;;;15.57;;
16352;SDS011;8286;51.274;9.542;2022-12-01T08:12:24;33.40;;;15.07;;
16352;SDS011;8286;51.274;9.542;2022-12-01T08:14:51;37.37;;;16.00;;
16352;SDS011;8286;51.274;9.542;2022-12-01T08:17:17;43.03;;;19.60;;
16352;SDS011;8286;51.274;9.542;2022-12-01T08:19:46;40.43;;;18.30;;
16352;SDS011;8286;51.274;9.542;2022-12-01T08:22:12;32.83;;;16.33;;
16352;SDS011;8286;51.274;9.542;2022-12-01T08:24:39;39.90;;;17.80;;
16352;SDS011;8286;51.274;9.542;2022-12-01T08:27:06;41.80;;;17.67;;
16352;SDS011;8286;51.274;9.542;2022-12-01T08:29:33;34.20;;;15.53;;
16352;SDS011;8286;51.274;9.542;2022-12-01T08:32:00;38.37;;;17.03;;
16352;SDS011;8286;51.274;9.542;2022-12-01T08:34:27;38.57;;;16.63;;
16352;SDS011;8286;51.274;9.542;2022-12-01T08:36:55;34.30;;;15.20;;
16352;SDS011;8286;51.274;9.542;2022-12-01T08:39:22;36.70;;;17.77;;
16352;SDS011;8286;51.274;9.542;2022-12-01T08:41:48;39.73;;;17.93;;
16352;SDS011;8286;51.274;9.542;2022-12-01T08:44:15;32.80;;;16.13;;
16352;SDS011;8286;51.274;9.542;2022-12-01T08:46:42;34.90;;;15.37;;
16352;SDS011;8286;51.274;9.542;2022-12-01T08:49:09;33.13;;;15.93;;
16352;SDS011;8286;51.274;9.542;2022-12-01T08:51:35;37.03;;;16.80;;
16352;SDS011;8286;51.274;9.542;2022-12-01T08:54:03;37.67;;;16.53;;
16352;SDS011;8286;51.274;9.542;2022-12-01T08:56:31;35.83;;;15.90;;
16352;SDS011;8286;51.274;9.542;2022-12-01T08:58:59;29.93;;;14.80;;
16352;SDS011;8286;51.274;9.542;2022-12-01T09:01:26;33.03;;;15.30;;
16352;SDS011;8286;51.274;9.542;2022-12-01T09:03:54;36.50;;;15.50;;
16352;SDS011;8286;51.274;9.542;2022-12-01T09:06:32;34.53;;;15.03;;
16352;SDS011;8286;51.274;9.542;2022-12-01T09:09:00;27.10;;;12.40;;
16352;SDS011;8286;51.274;9.542;2022-12-01T09:11:28;25.63;;;13.47;;
16352;SDS011;8286;51.274;9.542;2022-12-01T09:13:54;27.17;;;13.20;;
16352;SDS011;8286;51.274;9.542;2022-12-01T09:16:21;21.80;;;11.07;;
16352;SDS011;8286;51.274;9.542;2022-12-01T09:18:48;22.80;;;10.97;;
16352;SDS011;8286;51.274;9.542;2022-12-01T09:21:15;20.43;;;9.00;;
16352;SDS011;8286;51.274;9.542;2022-12-01T09:23:43;15.60;;;8.43;;
16352;SDS011;8286;51.274;9.542;2022-12-01T09:26:10;22.20;;;10.33;;
16352;SDS011;8286;51.274;9.542;2022-12-01T09:28:38;23.83;;;11.27;;
16352;SDS011;8286;51.274;9.542;2022-12-01T09:31:05;25.17;;;11.87;;
16352;SDS011;8286;51.274;9.542;2022-12-01T09:33:33;19.53;;;9.60;;
16352;SDS011;8286;51.274;9.542;2022-12-01T09:36:00;17.60;;;8.50;;
16352;SDS011;8286;51.274;9.542;2022-12-01T09:38:27;18.73;;;8.77;;
16352;SDS011;8286;51.274;9.542;2022-12-01T09:40:55;16.43;;;9.40;;
16352;SDS011;8286;51.274;9.542;2022-12-01T09:43:23;17.97;;;9.53;;
16352;SDS011;8286;51.274;9.542;2022-12-01T09:45:53;17.93;;;9.60;;
16352;SDS011;8286;51.274;9.542;2022-12-01T09:48:24;16.50;;;9.60;;
16352;SDS011;8286;51.274;9.542;2022-12-01T09:50:53;16.17;;;10.40;;
16352;SDS011;8286;51.274;9.542;2022-12-01T09:53:21;19.47;;;9.77;;
16352;SDS011;8286;51.274;9.542;2022-12-01T09:55:49;15.80;;;8.87;;
16352;SDS011;8286;51.274;9.542;2022-12-01T09:58:17;15.03;;;8.63;;
16352;SDS011;8286;51.274;9.542;2022-12-01T10:00:46;20.60;;;9.23;;
16352;SDS011;8286;51.274;9.542;2022-12-01T10:03:19;23.90;;;9.43;;
16352;SDS011;8286;51.274;9.542;2022-12-01T10:05:53;18.03;;;9.00;;
16352;SDS011;8286;51.274;9.542;2022-12-01T10:08:21;19.00;;;9.17;;
16352;SDS011;8286;51.274;9.542;2022-12-01T10:10:50;18.53;;;9.57;;
16352;SDS011;8286;51.274;9.542;2022-12-01T10:13:19;17.40;;;9.33;;
16352;SDS011;8286;51.274;9.542;2022-12-01T10:15:49;21.00;;;10.07;;
16352;SDS011;8286;51.274;9.542;2022-12-01T10:18:33;18.50;;;9.83;;
16352;SDS011;8286;51.274;9.542;2022-12-01T10:21:08;18.60;;;9.07;;
16352;SDS011;8286;51.274;9.542;2022-12-01T10:23:55;20.43;;;9.93;;
16352;SDS011;8286;51.274;9.542;2022-12-01T10:26:30;21.97;;;10.57;;
16352;SDS011;8286;51.274;9.542;2022-12-01T10:31:52;26.30;;;11.90;;
16352;SDS011;8286;51.274;9.542;2022-12-01T10:34:23;23.53;;;11.20;;
16352;SDS011;8286;51.274;9.542;2022-12-01T10:36:51;23.73;;;10.37;;
16352;SDS011;8286;51.274;9.542;2022-12-01T10:39:20;20.20;;;10.33;;
16352;SDS011;8286;51.274;9.542;2022-12-01T10:41:50;25.10;;;12.33;;
16352;SDS011;8286;51.274;9.542;2022-12-01T10:44:17;23.97;;;11.30;;
16352;SDS011;8286;51.274;9.542;2022-12-01T10:46:45;23.87;;;11.33;;
16352;SDS011;8286;51.274;9.542;2022-12-01T10:49:15;20.30;;;9.87;;
16352;SDS011;8286;51.274;9.542;2022-12-01T10:51:51;18.20;;;8.73;;
16352;SDS011;8286;51.274;9.542;2022-12-01T10:54:19;20.90;;;9.70;;
16352;SDS011;8286;51.274;9.542;2022-12-01T10:56:47;17.97;;;8.80;;
16352;SDS011;8286;51.274;9.542;2022-12-01T10:59:20;19.03;;;8.50;;
16352;SDS011;8286;51.274;9.542;2022-12-01T11:01:49;17.13;;;8.53;;
16352;SDS011;8286;51.274;9.542;2022-12-01T11:04:20;19.70;;;9.17;;
16352;SDS011;8286;51.274;9.542;2022-12-01T11:06:56;17.07;;;9.33;;
16352;SDS011;8286;51.274;9.542;2022-12-01T11:09:24;16.87;;;8.70;;
16352;SDS011;8286;51.274;9.542;2022-12-01T11:11:53;17.47;;;8.63;;
16352;SDS011;8286;51.274;9.542;2022-12-01T11:14:22;20.57;;;8.70;;
16352;SDS011;8286;51.274;9.542;2022-12-01T11:16:50;15.23;;;8.63;;
16352;SDS011;8286;51.274;9.542;2022-12-01T11:19:28;16.07;;;8.17;;
16352;SDS011;8286;51.274;9.542;2022-12-01T11:21:58;15.13;;;7.97;;
16352;SDS011;8286;51.274;9.542;2022-12-01T11:24:27;17.97;;;8.50;;
16352;SDS011;8286;51.274;9.542;2022-12-01T11:27:11;14.50;;;8.23;;
16352;SDS011;8286;51.274;9.542;2022-12-01T11:29:40;20.53;;;9.60;;
16352;SDS011;8286;51.274;9.542;2022-12-01T11:32:12;16.60;;;8.97;;
16352;SDS011;8286;51.274;9.542;2022-12-01T11:34:45;17.50;;;9.40;;
16352;SDS011;8286;51.274;9.542;2022-12-01T11:37:16;20.27;;;9.47;;
16352;SDS011;8286;51.274;9.542;2022-12-01T11:39:43;20.33;;;10.47;;
16352;SDS011;8286;51.274;9.542;2022-12-01T11:42:14;20.93;;;9.87;;
16352;SDS011;8286;51.274;9.542;2022-12-01T11:44:48;19.80;;;9.83;;
16352;SDS011;8286;51.274;9.542;2022-12-01T11:47:17;21.03;;;9.60;;
16352;SDS011;8286;51.274;9.542;2022-12-01T11:49:46;19.77;;;10.27;;
16352;SDS011;8286;51.274;9.542;2022-12-01T11:52:22;22.40;;;10.73;;
16352;SDS011;8286;51.274;9.542;2022-12-01T11:54:55;23.27;;;11.10;;
16352;SDS011;8286;51.274;9.542;2022-12-01T11:57:27;19.17;;;10.10;;
16352;SDS011;8286;51.274;9.542;2022-12-01T11:59:54;26.73;;;10.93;;
16352;SDS011;8286;51.274;9.542;2022-12-01T12:02:24;20.67;;;10.37;;
16352;SDS011;8286;51.274;9.542;2022-12-01T12:05:00;20.90;;;10.97;;
16352;SDS011;8286;51.274;9.542;2022-12-01T12:07:54;25.87;;;11.67;;
16352;SDS011;8286;51.274;9.542;2022-12-01T12:10:32;24.30;;;12.17;;
16352;SDS011;8286;51.274;9.542;2022-12-01T12:13:09;20.87;;;11.27;;
16352;SDS011;8286;51.274;9.542;2022-12-01T12:15:55;22.87;;;12.03;;
16352;SDS011;8286;51.274;9.542;2022-12-01T12:18:30;25.20;;;10.70;;
16352;SDS011;8286;51.274;9.542;2022-12-01T12:21:04;25.83;;;11.53;;
16352;SDS011;8286;51.274;9.542;2022-12-01T12:23:43;22.80;;;11.33;;
16352;SDS011;8286;51.274;9.542;2022-12-01T12:26:18;21.00;;;10.87;;
16352;SDS011;8286;51.274;9.542;2022-12-01T12:28:55;20.47;;;10.23;;
16352;SDS011;8286;51.274;9.542;2022-12-01T12:31:32;24.07;;;11.40;;
16352;SDS011;8286;51.274;9.542;2022-12-01T12:34:16;27.83;;;11.20;;
16352;SDS011;8286;51.274;9.542;2022-12-01T12:36:58;24.70;;;11.23;;
16352;SDS011;8286;51.274;9.542;2022-12-01T12:39:31;21.87;;;11.60;;
16352;SDS011;8286;51.274;9.542;2022-12-01T12:42:14;24.77;;;11.37;;
16352;SDS011;8286;51.274;9.542;2022-12-01T12:44:47;24.93;;;11.93;;
16352;SDS011;8286;51.274;9.542;2022-12-01T12:47:29;21.43;;;11.17;;
16352;SDS011;8286;51.274;9.542;2022-12-01T12:50:07;23.67;;;10.37;;
16352;SDS011;8286;51.274;9.542;2022-12-01T12:52:41;24.60;;;11.70;;
16352;SDS011;8286;51.274;9.542;2022-12-01T12:55:12;22.90;;;11.27;;
16352;SDS011;8286;51.274;9.542;2022-12-01T12:57:43;26.00;;;12.03;;
16352;SDS011;8286;51.274;9.542;2022-12-01T13:00:13;28.10;;;12.27;;
16352;SDS011;8286;51.274;9.542;2022-12-01T13:02:42;26.63;;;12.00;;
16352;SDS011;8286;51.274;9.542;2022-12-01T13:05:14;26.13;;;11.17;;
16352;SDS011;8286;51.274;9.542;2022-12-01T13:07:43;30.67;;;13.57;;
16352;SDS011;8286;51.274;9.542;2022-12-01T13:10:20;26.43;;;10.87;;
16352;SDS011;8286;51.274;9.542;2022-12-01T13:12:52;26.50;;;12.17;;
16352;SDS011;8286;51.274;9.542;2022-12-01T13:15:23;27.03;;;11.53;;
16352;SDS011;8286;51.274;9.542;2022-12-01T13:17:51;27.80;;;12.70;;
16352;SDS011;8286;51.274;9.542;2022-12-01T13:20:21;23.20;;;11.50;;
16352;SDS011;8286;51.274;9.542;2022-12-01T13:22:51;34.47;;;13.53;;
16352;SDS011;8286;51.274;9.542;2022-12-01T13:25:21;28.57;;;12.63;;
16352;SDS011;8286;51.274;9.542;2022-12-01T13:27:50;28.13;;;12.40;;
16352;SDS011;8286;51.274;9.542;2022-12-01T13:30:18;27.17;;;11.70;;
16352;SDS011;8286;51.274;9.542;2022-12-01T13:32:56;30.07;;;12.57;;
16352;SDS011;8286;51.274;9.542;2022-12-01T13:35:25;35.77;;;13.47;;
16352;SDS011;8286;51.274;9.542;2022-12-01T13:37:53;29.20;;;11.60;;
16352;SDS011;8286;51.274;9.542;2022-12-01T13:40:24;30.93;;;13.10;;
16352;SDS011;8286;51.274;9.542;2022-12-01T13:42:55;26.47;;;12.63;;
16352;SDS011;8286;51.274;9.542;2022-12-01T13:45:23;23.60;;;11.63;;
16352;SDS011;8286;51.274;9.542;2022-12-01T13:47:50;28.70;;;12.23;;
16352;SDS011;8286;51.274;9.542;2022-12-01T13:53:28;29.93;;;12.57;;
16352;SDS011;8286;51.274;9.542;2022-12-01T13:55:59;31.20;;;13.33;;
16352;SDS011;8286;51.274;9.542;2022-12-01T13:58:40;27.37;;;12.40;;
16352;SDS011;8286;51.274;9.542;2022-12-01T14:10:11;38.83;;;14.87;;
16352;SDS011;8286;51.274;9.542;2022-12-01T14:12:52;35.00;;;15.67;;
16352;SDS011;8286;51.274;9.542;2022-12-01T14:15:28;26.80;;;11.97;;
16352;SDS011;8286;51.274;9.542;2022-12-01T14:17:57;29.23;;;12.77;;
16352;SDS011;8286;51.274;9.542;2022-12-01T14:20:26;33.93;;;13.07;;
16352;SDS011;8286;51.274;9.542;2022-12-01T14:23:01;29.83;;;14.30;;
16352;SDS011;8286;51.274;9.542;2022-12-01T14:25:30;30.90;;;12.53;;
16352;SDS011;8286;51.274;9.542;2022-12-01T14:27:59;32.30;;;14.13;;
16352;SDS011;8286;51.274;9.542;2022-12-01T14:33:44;32.23;;;13.73;;
16352;SDS011;8286;51.274;9.542;2022-12-01T14:36:33;28.13;;;13.27;;
16352;SDS011;8286;51.274;9.542;2022-12-01T14:39:04;34.83;;;13.47;;
16352;SDS011;8286;51.274;9.542;2022-12-01T14:41:37;33.87;;;14.37;;
16352;SDS011;8286;51.274;9.542;2022-12-01T14:44:11;34.13;;;15.13;;
16352;SDS011;8286;51.274;9.542;2022-12-01T14:46:41;36.23;;;14.53;;
16352;SDS011;8286;51.274;9.542;2022-12-01T14:49:11;33.97;;;14.67;;
16352;SDS011;8286;51.274;9.542;2022-12-01T14:51:47;28.27;;;13.77;;
16352;SDS011;8286;51.274;9.542;2022-12-01T14:54:18;29.73;;;12.93;;
16352;SDS011;8286;51.274;9.542;2022-12-01T14:56:50;31.33;;;12.57;;
16352;SDS011;8286;51.274;9.542;2022-12-01T14:59:21;36.93;;;13.47;;
16352;SDS011;8286;51.274;9.542;2022-12-01T15:01:50;33.67;;;14.10;;
16352;SDS011;8286;51.274;9.542;2022-12-01T15:04:18;29.87;;;13.57;;
16352;SDS011;8286;51.274;9.542;2022-12-01T15:06:45;32.07;;;13.50;;
16352;SDS011;8286;51.274;9.542;2022-12-01T15:09:14;31.83;;;14.23;;
16352;SDS011;8286;51.274;9.542;2022-12-01T15:11:49;33.73;;;13.40;;